sensor_id;sensor_type;location;lat;lon;timestamp;temperature;humidity
14397;DHT22;50653;47.810;13.022;2023-02-28T00:01:21;-0.30;91.80
14397;DHT22;50653;47.810;13.022;2023-02-28T00:03:46;-0.30;91.90
14397;DHT22;50653;47.810;13.022;2023-02-28T00:06:12;-0.30;92.10
14397;DHT22;50653;47.810;13.022;2023-02-28T00:08:38;-0.30;91.90
14397;DHT22;50653;47.810;13.022;2023-02-28T00:11:09;-0.30;92.00
14397;DHT22;50653;47.810;13.022;2023-02-28T00:13:38;-0.20;91.90
14397;DHT22;50653;47.810;13.022;2023-02-28T00:16:07;-0.20;91.90
14397;DHT22;50653;47.810;13.022;2023-02-28T00:18:34;-0.30;91.60
14397;DHT22;50653;47.810;13.022;2023-02-28T00:21:00;-0.30;91.80
14397;DHT22;50653;47.810;13.022;2023-02-28T00:23:27;-0.30;91.60
14397;DHT22;50653;47.810;13.022;2023-02-28T00:25:53;-0.30;91.80
14397;DHT22;50653;47.810;13.022;2023-02-28T00:28:19;-0.30;91.70
14397;DHT22;50653;47.810;13.022;2023-02-28T00:30:44;-0.40;91.60
14397;DHT22;50653;47.810;13.022;2023-02-28T00:33:10;-0.30;91.40
14397;DHT22;50653;47.810;13.022;2023-02-28T00:35:36;-0.40;91.70
14397;DHT22;50653;47.810;13.022;2023-02-28T00:38:02;-0.40;91.60
14397;DHT22;50653;47.810;13.022;2023-02-28T00:40:28;-0.40;91.60
14397;DHT22;50653;47.810;13.022;2023-02-28T00:42:53;-0.30;91.70
14397;DHT22;50653;47.810;13.022;2023-02-28T00:45:19;-0.40;92.30
14397;DHT22;50653;47.810;13.022;2023-02-28T00:47:44;-0.30;92.80
14397;DHT22;50653;47.810;13.022;2023-02-28T00:50:12;-0.40;93.30
14397;DHT22;50653;47.810;13.022;2023-02-28T00:52:37;-0.40;93.30
14397;DHT22;50653;47.810;13.022;2023-02-28T00:55:04;-0.40;94.00
14397;DHT22;50653;47.810;13.022;2023-02-28T00:57:29;-0.40;94.30
14397;DHT22;50653;47.810;13.022;2023-02-28T00:59:55;-0.40;94.60
14397;DHT22;50653;47.810;13.022;2023-02-28T01:02:22;-0.40;94.50
14397;DHT22;50653;47.810;13.022;2023-02-28T01:04:48;-0.40;94.80
14397;DHT22;50653;47.810;13.022;2023-02-28T01:07:14;-0.60;95.20
14397;DHT22;50653;47.810;13.022;2023-02-28T01:09:40;-0.60;95.60
14397;DHT22;50653;47.810;13.022;2023-02-28T01:12:07;-0.50;95.60
14397;DHT22;50653;47.810;13.022;2023-02-28T01:14:33;-0.60;96.00
14397;DHT22;50653;47.810;13.022;2023-02-28T01:16:59;-0.60;96.40
14397;DHT22;50653;47.810;13.022;2023-02-28T01:19:26;-0.60;96.30
14397;DHT22;50653;47.810;13.022;2023-02-28T01:21:51;-0.60;96.60
14397;DHT22;50653;47.810;13.022;2023-02-28T01:24:17;-0.70;96.50
14397;DHT22;50653;47.810;13.022;2023-02-28T01:26:44;-0.70;96.80
14397;DHT22;50653;47.810;13.022;2023-02-28T01:29:10;-0.70;96.90
14397;DHT22;50653;47.810;13.022;2023-02-28T01:31:35;-0.70;96.90
14397;DHT22;50653;47.810;13.022;2023-02-28T01:34:02;-0.70;96.90
14397;DHT22;50653;47.810;13.022;2023-02-28T01:36:28;-0.60;96.80
14397;DHT22;50653;47.810;13.022;2023-02-28T01:38:55;-0.60;97.00
14397;DHT22;50653;47.810;13.022;2023-02-28T01:46:14;-0.80;97.20
14397;DHT22;50653;47.810;13.022;2023-02-28T01:48:46;-0.80;97.10
14397;DHT22;50653;47.810;13.022;2023-02-28T01:51:18;-0.80;96.90
14397;DHT22;50653;47.810;13.022;2023-02-28T01:53:47;-0.70;96.50
14397;DHT22;50653;47.810;13.022;2023-02-28T01:56:19;-0.70;96.90
14397;DHT22;50653;47.810;13.022;2023-02-28T01:58:51;-0.70;97.20
14397;DHT22;50653;47.810;13.022;2023-02-28T02:01:18;-0.70;97.00
14397;DHT22;50653;47.810;13.022;2023-02-28T02:03:53;-0.70;96.90
14397;DHT22;50653;47.810;13.022;2023-02-28T02:06:26;-0.70;97.20
14397;DHT22;50653;47.810;13.022;2023-02-28T02:08:53;-0.70;97.30
14397;DHT22;50653;47.810;13.022;2023-02-28T02:11:20;-0.70;97.20
14397;DHT22;50653;47.810;13.022;2023-02-28T02:17:12;-0.90;97.40
14397;DHT22;50653;47.810;13.022;2023-02-28T02:20:01;-0.90;97.50
14397;DHT22;50653;47.810;13.022;2023-02-28T02:23:02;-0.90;97.70
14397;DHT22;50653;47.810;13.022;2023-02-28T02:25:49;-0.90;97.70
14397;DHT22;50653;47.810;13.022;2023-02-28T02:28:37;-0.90;98.00
14397;DHT22;50653;47.810;13.022;2023-02-28T02:34:21;-1.00;97.90
14397;DHT22;50653;47.810;13.022;2023-02-28T02:37:00;-1.00;98.10
14397;DHT22;50653;47.810;13.022;2023-02-28T02:39:35;-0.90;98.20
14397;DHT22;50653;47.810;13.022;2023-02-28T02:42:08;-1.10;98.20
14397;DHT22;50653;47.810;13.022;2023-02-28T02:44:58;-1.00;98.40
14397;DHT22;50653;47.810;13.022;2023-02-28T02:47:29;-0.90;98.40
14397;DHT22;50653;47.810;13.022;2023-02-28T02:49:57;-1.00;98.40
14397;DHT22;50653;47.810;13.022;2023-02-28T02:52:32;-1.00;98.50
14397;DHT22;50653;47.810;13.022;2023-02-28T02:55:00;-1.10;98.30
14397;DHT22;50653;47.810;13.022;2023-02-28T02:57:50;-1.20;98.70
14397;DHT22;50653;47.810;13.022;2023-02-28T03:00:20;-1.20;98.90
14397;DHT22;50653;47.810;13.022;2023-02-28T03:02:49;-1.20;98.70
14397;DHT22;50653;47.810;13.022;2023-02-28T03:05:24;-1.20;99.00
14397;DHT22;50653;47.810;13.022;2023-02-28T03:07:50;-1.20;98.90
14397;DHT22;50653;47.810;13.022;2023-02-28T03:10:40;-1.20;98.70
14397;DHT22;50653;47.810;13.022;2023-02-28T03:27:25;-1.20;98.80
14397;DHT22;50653;47.810;13.022;2023-02-28T03:30:10;-1.20;98.80
14397;DHT22;50653;47.810;13.022;2023-02-28T03:35:18;-1.20;99.10
14397;DHT22;50653;47.810;13.022;2023-02-28T03:37:52;-1.30;99.10
14397;DHT22;50653;47.810;13.022;2023-02-28T03:40:23;-1.20;99.20
14397;DHT22;50653;47.810;13.022;2023-02-28T03:42:55;-1.20;98.90
14397;DHT22;50653;47.810;13.022;2023-02-28T03:45:26;-1.40;99.20
14397;DHT22;50653;47.810;13.022;2023-02-28T03:48:16;-1.30;99.50
14397;DHT22;50653;47.810;13.022;2023-02-28T03:50:47;-1.30;99.40
14397;DHT22;50653;47.810;13.022;2023-02-28T03:53:33;-1.50;99.80
14397;DHT22;50653;47.810;13.022;2023-02-28T03:56:07;-1.50;99.40
14397;DHT22;50653;47.810;13.022;2023-02-28T03:59:16;-1.60;99.60
14397;DHT22;50653;47.810;13.022;2023-02-28T04:01:45;-1.60;99.90
14397;DHT22;50653;47.810;13.022;2023-02-28T04:04:13;-1.60;99.90
14397;DHT22;50653;47.810;13.022;2023-02-28T04:06:39;-1.50;99.90
14397;DHT22;50653;47.810;13.022;2023-02-28T04:09:06;-1.50;99.90
14397;DHT22;50653;47.810;13.022;2023-02-28T04:11:44;-1.50;99.90
14397;DHT22;50653;47.810;13.022;2023-02-28T04:14:11;-1.50;99.70
14397;DHT22;50653;47.810;13.022;2023-02-28T04:16:40;-1.50;99.90
14397;DHT22;50653;47.810;13.022;2023-02-28T04:19:07;-1.70;99.90
14397;DHT22;50653;47.810;13.022;2023-02-28T04:21:47;-1.70;99.90
14397;DHT22;50653;47.810;13.022;2023-02-28T04:24:24;-1.70;99.90
14397;DHT22;50653;47.810;13.022;2023-02-28T04:26:52;-1.60;99.90
14397;DHT22;50653;47.810;13.022;2023-02-28T04:29:23;-1.60;99.90
14397;DHT22;50653;47.810;13.022;2023-02-28T04:31:49;-1.60;99.90
14397;DHT22;50653;47.810;13.022;2023-02-28T04:34:15;-1.60;99.90
14397;DHT22;50653;47.810;13.022;2023-02-28T04:36:41;-1.60;99.90
14397;DHT22;50653;47.810;13.022;2023-02-28T04:39:06;-1.60;99.90
14397;DHT22;50653;47.810;13.022;2023-02-28T04:41:32;-1.60;99.80
14397;DHT22;50653;47.810;13.022;2023-02-28T04:43:58;-1.60;99.70
14397;DHT22;50653;47.810;13.022;2023-02-28T04:46:23;-1.60;99.80
14397;DHT22;50653;47.810;13.022;2023-02-28T04:48:49;-1.60;99.80
14397;DHT22;50653;47.810;13.022;2023-02-28T04:51:17;-1.60;99.40
14397;DHT22;50653;47.810;13.022;2023-02-28T04:53:43;-1.70;99.50
14397;DHT22;50653;47.810;13.022;2023-02-28T04:56:12;-1.70;99.60
14397;DHT22;50653;47.810;13.022;2023-02-28T04:58:38;-1.70;99.90
14397;DHT22;50653;47.810;13.022;2023-02-28T05:01:13;-1.90;99.90
14397;DHT22;50653;47.810;13.022;2023-02-28T05:03:41;-1.80;99.90
14397;DHT22;50653;47.810;13.022;2023-02-28T05:06:07;-1.80;99.90
14397;DHT22;50653;47.810;13.022;2023-02-28T05:08:34;-2.00;99.90
14397;DHT22;50653;47.810;13.022;2023-02-28T05:11:00;-2.00;99.90
14397;DHT22;50653;47.810;13.022;2023-02-28T05:13:27;-1.90;99.90
14397;DHT22;50653;47.810;13.022;2023-02-28T05:15:53;-1.90;99.90
14397;DHT22;50653;47.810;13.022;2023-02-28T05:18:18;-1.90;99.90
14397;DHT22;50653;47.810;13.022;2023-02-28T05:20:44;-2.00;99.90
14397;DHT22;50653;47.810;13.022;2023-02-28T05:23:12;-1.90;99.90
14397;DHT22;50653;47.810;13.022;2023-02-28T05:25:39;-1.90;99.90
14397;DHT22;50653;47.810;13.022;2023-02-28T05:28:05;-1.90;99.90
14397;DHT22;50653;47.810;13.022;2023-02-28T05:30:31;-2.00;99.90
14397;DHT22;50653;47.810;13.022;2023-02-28T05:32:57;-1.90;99.90
14397;DHT22;50653;47.810;13.022;2023-02-28T05:35:23;-1.90;99.90
14397;DHT22;50653;47.810;13.022;2023-02-28T05:37:49;-2.00;99.90
14397;DHT22;50653;47.810;13.022;2023-02-28T05:40:15;-1.90;99.90
14397;DHT22;50653;47.810;13.022;2023-02-28T05:42:41;-1.90;99.90
14397;DHT22;50653;47.810;13.022;2023-02-28T05:45:07;-1.80;99.90
14397;DHT22;50653;47.810;13.022;2023-02-28T05:47:34;-1.90;99.90
14397;DHT22;50653;47.810;13.022;2023-02-28T05:49:59;-2.00;99.90
14397;DHT22;50653;47.810;13.022;2023-02-28T05:52:26;-1.90;99.90
14397;DHT22;50653;47.810;13.022;2023-02-28T05:54:52;-2.00;99.90
14397;DHT22;50653;47.810;13.022;2023-02-28T05:57:18;-2.10;99.90
14397;DHT22;50653;47.810;13.022;2023-02-28T05:59:43;-2.00;99.90
14397;DHT22;50653;47.810;13.022;2023-02-28T06:02:13;-1.90;99.90
14397;DHT22;50653;47.810;13.022;2023-02-28T06:04:38;-2.00;99.90
14397;DHT22;50653;47.810;13.022;2023-02-28T06:07:06;-1.90;99.90
14397;DHT22;50653;47.810;13.022;2023-02-28T06:09:32;-1.90;99.90
14397;DHT22;50653;47.810;13.022;2023-02-28T06:11:59;-2.00;99.90
14397;DHT22;50653;47.810;13.022;2023-02-28T06:14:24;-2.00;99.90
14397;DHT22;50653;47.810;13.022;2023-02-28T06:16:50;-2.00;99.90
14397;DHT22;50653;47.810;13.022;2023-02-28T06:19:16;-1.80;99.90
14397;DHT22;50653;47.810;13.022;2023-02-28T06:21:42;-1.90;99.90
14397;DHT22;50653;47.810;13.022;2023-02-28T06:24:08;-1.90;99.90
14397;DHT22;50653;47.810;13.022;2023-02-28T06:26:34;-2.10;99.90
14397;DHT22;50653;47.810;13.022;2023-02-28T06:28:59;-2.40;99.90
14397;DHT22;50653;47.810;13.022;2023-02-28T06:31:26;-2.30;99.90
14397;DHT22;50653;47.810;13.022;2023-02-28T06:33:52;-2.00;99.90
14397;DHT22;50653;47.810;13.022;2023-02-28T06:36:18;-2.00;99.90
14397;DHT22;50653;47.810;13.022;2023-02-28T06:38:45;-1.90;99.90
14397;DHT22;50653;47.810;13.022;2023-02-28T06:41:10;-1.90;99.90
14397;DHT22;50653;47.810;13.022;2023-02-28T06:43:39;-1.90;99.90
14397;DHT22;50653;47.810;13.022;2023-02-28T06:46:07;-1.80;99.90
14397;DHT22;50653;47.810;13.022;2023-02-28T06:48:33;-1.80;99.90
14397;DHT22;50653;47.810;13.022;2023-02-28T06:51:10;-1.90;99.90
14397;DHT22;50653;47.810;13.022;2023-02-28T06:53:36;-1.80;99.90
14397;DHT22;50653;47.810;13.022;2023-02-28T06:56:11;-1.60;99.90
14397;DHT22;50653;47.810;13.022;2023-02-28T06:58:38;-1.50;99.90
14397;DHT22;50653;47.810;13.022;2023-02-28T07:01:05;-1.40;99.90
14397;DHT22;50653;47.810;13.022;2023-02-28T07:03:31;-1.50;99.90
14397;DHT22;50653;47.810;13.022;2023-02-28T07:05:57;-1.40;99.90
14397;DHT22;50653;47.810;13.022;2023-02-28T07:08:24;-1.40;99.90
14397;DHT22;50653;47.810;13.022;2023-02-28T07:10:56;-1.40;99.90
14397;DHT22;50653;47.810;13.022;2023-02-28T07:13:22;-1.30;99.90
14397;DHT22;50653;47.810;13.022;2023-02-28T07:16:00;-1.40;99.90
14397;DHT22;50653;47.810;13.022;2023-02-28T07:18:26;-1.40;99.90
14397;DHT22;50653;47.810;13.022;2023-02-28T07:20:52;-1.40;99.90
14397;DHT22;50653;47.810;13.022;2023-02-28T07:23:18;-1.40;99.90
14397;DHT22;50653;47.810;13.022;2023-02-28T07:25:44;-1.40;99.90
14397;DHT22;50653;47.810;13.022;2023-02-28T07:28:11;-1.40;99.90
14397;DHT22;50653;47.810;13.022;2023-02-28T07:30:37;-1.30;99.90
14397;DHT22;50653;47.810;13.022;2023-02-28T07:33:03;-1.20;99.90
14397;DHT22;50653;47.810;13.022;2023-02-28T07:35:29;-1.10;99.90
14397;DHT22;50653;47.810;13.022;2023-02-28T07:37:57;-1.20;99.90
14397;DHT22;50653;47.810;13.022;2023-02-28T07:40:23;-1.10;99.90
14397;DHT22;50653;47.810;13.022;2023-02-28T07:42:49;-1.00;99.70
14397;DHT22;50653;47.810;13.022;2023-02-28T07:45:16;-1.00;99.60
14397;DHT22;50653;47.810;13.022;2023-02-28T07:47:43;-1.20;99.60
14397;DHT22;50653;47.810;13.022;2023-02-28T07:50:11;-1.10;99.90
14397;DHT22;50653;47.810;13.022;2023-02-28T07:52:38;-1.00;99.90
14397;DHT22;50653;47.810;13.022;2023-02-28T07:55:05;-0.90;99.90
14397;DHT22;50653;47.810;13.022;2023-02-28T07:57:31;-0.90;99.80
14397;DHT22;50653;47.810;13.022;2023-02-28T07:59:57;-0.90;99.60
14397;DHT22;50653;47.810;13.022;2023-02-28T08:02:23;-0.80;99.60
14397;DHT22;50653;47.810;13.022;2023-02-28T08:04:48;-0.90;99.10
14397;DHT22;50653;47.810;13.022;2023-02-28T08:07:15;-0.90;99.40
14397;DHT22;50653;47.810;13.022;2023-02-28T08:09:42;-0.90;99.30
14397;DHT22;50653;47.810;13.022;2023-02-28T08:12:09;-1.20;98.40
14397;DHT22;50653;47.810;13.022;2023-02-28T08:14:35;-1.00;98.70
14397;DHT22;50653;47.810;13.022;2023-02-28T08:17:00;-0.90;98.30
14397;DHT22;50653;47.810;13.022;2023-02-28T08:19:26;-0.90;98.30
14397;DHT22;50653;47.810;13.022;2023-02-28T08:21:52;-0.90;98.20
14397;DHT22;50653;47.810;13.022;2023-02-28T08:24:18;-0.80;98.40
14397;DHT22;50653;47.810;13.022;2023-02-28T08:26:43;-0.70;98.30
14397;DHT22;50653;47.810;13.022;2023-02-28T08:29:09;-0.70;97.90
14397;DHT22;50653;47.810;13.022;2023-02-28T08:31:35;-0.80;97.60
14397;DHT22;50653;47.810;13.022;2023-02-28T08:34:06;-0.80;97.50
14397;DHT22;50653;47.810;13.022;2023-02-28T08:36:31;-0.70;97.70
14397;DHT22;50653;47.810;13.022;2023-02-28T08:38:57;-0.70;97.50
14397;DHT22;50653;47.810;13.022;2023-02-28T08:41:23;-0.60;97.40
14397;DHT22;50653;47.810;13.022;2023-02-28T08:43:49;-0.60;97.30
14397;DHT22;50653;47.810;13.022;2023-02-28T08:46:14;-0.50;97.00
14397;DHT22;50653;47.810;13.022;2023-02-28T08:48:41;-0.60;96.80
14397;DHT22;50653;47.810;13.022;2023-02-28T08:51:09;-0.40;97.00
14397;DHT22;50653;47.810;13.022;2023-02-28T08:53:36;-0.30;97.30
14397;DHT22;50653;47.810;13.022;2023-02-28T08:56:09;-0.20;97.00
14397;DHT22;50653;47.810;13.022;2023-02-28T08:58:35;-0.20;96.60
14397;DHT22;50653;47.810;13.022;2023-02-28T09:01:11;-0.30;96.00
14397;DHT22;50653;47.810;13.022;2023-02-28T09:03:38;-0.30;96.20
14397;DHT22;50653;47.810;13.022;2023-02-28T09:06:04;-0.20;96.60
14397;DHT22;50653;47.810;13.022;2023-02-28T09:08:30;-0.10;96.60
14397;DHT22;50653;47.810;13.022;2023-02-28T09:10:57;0.00;96.30
14397;DHT22;50653;47.810;13.022;2023-02-28T09:13:24;0.00;96.10
14397;DHT22;50653;47.810;13.022;2023-02-28T09:15:49;0.00;95.90
14397;DHT22;50653;47.810;13.022;2023-02-28T09:18:15;0.00;95.70
14397;DHT22;50653;47.810;13.022;2023-02-28T09:20:42;-0.10;95.80
14397;DHT22;50653;47.810;13.022;2023-02-28T09:23:09;0.00;95.90
14397;DHT22;50653;47.810;13.022;2023-02-28T09:25:35;0.10;95.70
14397;DHT22;50653;47.810;13.022;2023-02-28T09:28:01;0.10;96.00
14397;DHT22;50653;47.810;13.022;2023-02-28T09:30:28;0.20;96.00
14397;DHT22;50653;47.810;13.022;2023-02-28T09:32:54;0.20;95.60
14397;DHT22;50653;47.810;13.022;2023-02-28T09:35:20;0.10;95.70
14397;DHT22;50653;47.810;13.022;2023-02-28T09:37:47;0.20;96.10
14397;DHT22;50653;47.810;13.022;2023-02-28T09:40:14;0.30;95.90
14397;DHT22;50653;47.810;13.022;2023-02-28T09:42:46;0.20;95.90
14397;DHT22;50653;47.810;13.022;2023-02-28T09:45:52;0.30;96.60
14397;DHT22;50653;47.810;13.022;2023-02-28T09:48:29;0.40;95.80
14397;DHT22;50653;47.810;13.022;2023-02-28T09:51:03;0.30;95.40
14397;DHT22;50653;47.810;13.022;2023-02-28T09:53:33;0.20;95.00
14397;DHT22;50653;47.810;13.022;2023-02-28T09:56:25;0.30;95.70
14397;DHT22;50653;47.810;13.022;2023-02-28T10:04:16;0.50;95.20
14397;DHT22;50653;47.810;13.022;2023-02-28T10:06:50;0.50;94.60
14397;DHT22;50653;47.810;13.022;2023-02-28T15:39:49;3.30;94.20
14397;DHT22;50653;47.810;13.022;2023-02-28T18:47:59;3.20;96.60
14397;DHT22;50653;47.810;13.022;2023-02-28T18:50:25;3.20;96.90
14397;DHT22;50653;47.810;13.022;2023-02-28T18:52:50;3.10;97.00
14397;DHT22;50653;47.810;13.022;2023-02-28T18:55:16;3.10;97.10
14397;DHT22;50653;47.810;13.022;2023-02-28T18:57:45;3.20;97.10
14397;DHT22;50653;47.810;13.022;2023-02-28T19:00:11;3.10;97.20
14397;DHT22;50653;47.810;13.022;2023-02-28T19:02:37;3.20;97.50
14397;DHT22;50653;47.810;13.022;2023-02-28T19:05:03;3.20;97.80
14397;DHT22;50653;47.810;13.022;2023-02-28T19:07:29;3.20;97.90
14397;DHT22;50653;47.810;13.022;2023-02-28T19:10:00;3.20;97.80
14397;DHT22;50653;47.810;13.022;2023-02-28T19:12:26;3.20;97.90
14397;DHT22;50653;47.810;13.022;2023-02-28T19:14:52;3.20;98.20
14397;DHT22;50653;47.810;13.022;2023-02-28T19:17:18;3.30;98.00
14397;DHT22;50653;47.810;13.022;2023-02-28T19:19:44;3.20;97.90
14397;DHT22;50653;47.810;13.022;2023-02-28T19:22:09;3.20;97.50
14397;DHT22;50653;47.810;13.022;2023-02-28T19:24:35;3.30;97.60
14397;DHT22;50653;47.810;13.022;2023-02-28T19:27:01;3.30;97.70
14397;DHT22;50653;47.810;13.022;2023-02-28T19:29:26;3.30;98.10
14397;DHT22;50653;47.810;13.022;2023-02-28T19:31:52;3.30;98.10
14397;DHT22;50653;47.810;13.022;2023-02-28T19:34:17;3.30;98.00
14397;DHT22;50653;47.810;13.022;2023-02-28T19:36:43;3.30;97.70
14397;DHT22;50653;47.810;13.022;2023-02-28T19:39:09;3.30;98.10
14397;DHT22;50653;47.810;13.022;2023-02-28T19:41:35;3.30;98.20
14397;DHT22;50653;47.810;13.022;2023-02-28T19:44:00;3.30;98.20
14397;DHT22;50653;47.810;13.022;2023-02-28T19:46:26;3.30;98.20
14397;DHT22;50653;47.810;13.022;2023-02-28T19:48:53;3.30;98.80
14397;DHT22;50653;47.810;13.022;2023-02-28T19:51:19;3.30;98.80
14397;DHT22;50653;47.810;13.022;2023-02-28T19:53:45;3.30;99.30
14397;DHT22;50653;47.810;13.022;2023-02-28T19:56:11;3.30;99.10
14397;DHT22;50653;47.810;13.022;2023-02-28T19:58:37;3.30;99.30
14397;DHT22;50653;47.810;13.022;2023-02-28T20:01:12;3.30;99.60
14397;DHT22;50653;47.810;13.022;2023-02-28T20:03:38;3.30;99.70
14397;DHT22;50653;47.810;13.022;2023-02-28T20:06:06;3.30;99.50
14397;DHT22;50653;47.810;13.022;2023-02-28T20:08:32;3.30;99.20
14397;DHT22;50653;47.810;13.022;2023-02-28T20:11:03;3.30;98.90
14397;DHT22;50653;47.810;13.022;2023-02-28T20:13:29;3.20;98.80
14397;DHT22;50653;47.810;13.022;2023-02-28T20:15:58;3.20;99.00
14397;DHT22;50653;47.810;13.022;2023-02-28T20:18:24;3.20;99.10
14397;DHT22;50653;47.810;13.022;2023-02-28T20:20:50;3.20;99.20
14397;DHT22;50653;47.810;13.022;2023-02-28T20:23:15;3.30;99.20
14397;DHT22;50653;47.810;13.022;2023-02-28T20:25:41;3.20;99.60
14397;DHT22;50653;47.810;13.022;2023-02-28T20:28:07;3.20;99.80
14397;DHT22;50653;47.810;13.022;2023-02-28T20:30:33;3.20;99.90
14397;DHT22;50653;47.810;13.022;2023-02-28T20:32:58;3.20;99.90
14397;DHT22;50653;47.810;13.022;2023-02-28T20:35:24;3.30;99.70
14397;DHT22;50653;47.810;13.022;2023-02-28T20:37:49;3.20;99.90
14397;DHT22;50653;47.810;13.022;2023-02-28T20:40:15;3.30;99.90
14397;DHT22;50653;47.810;13.022;2023-02-28T20:42:41;3.30;99.90
14397;DHT22;50653;47.810;13.022;2023-02-28T20:45:07;3.20;99.90
14397;DHT22;50653;47.810;13.022;2023-02-28T20:47:33;3.30;99.90
14397;DHT22;50653;47.810;13.022;2023-02-28T20:49:58;3.30;99.90
14397;DHT22;50653;47.810;13.022;2023-02-28T20:52:24;3.30;99.90
14397;DHT22;50653;47.810;13.022;2023-02-28T20:54:50;3.30;99.90
14397;DHT22;50653;47.810;13.022;2023-02-28T20:57:15;3.30;99.90
14397;DHT22;50653;47.810;13.022;2023-02-28T20:59:41;3.30;99.90
14397;DHT22;50653;47.810;13.022;2023-02-28T21:02:08;3.30;99.90
14397;DHT22;50653;47.810;13.022;2023-02-28T21:04:34;3.20;99.90
14397;DHT22;50653;47.810;13.022;2023-02-28T21:06:59;3.20;99.90
14397;DHT22;50653;47.810;13.022;2023-02-28T21:09:25;3.30;99.90
14397;DHT22;50653;47.810;13.022;2023-02-28T21:11:52;3.30;99.90
14397;DHT22;50653;47.810;13.022;2023-02-28T21:14:18;3.20;99.90
14397;DHT22;50653;47.810;13.022;2023-02-28T21:16:44;3.30;99.90
14397;DHT22;50653;47.810;13.022;2023-02-28T21:19:11;3.20;99.90
14397;DHT22;50653;47.810;13.022;2023-02-28T21:21:39;3.20;99.90
14397;DHT22;50653;47.810;13.022;2023-02-28T21:24:17;3.20;99.90
14397;DHT22;50653;47.810;13.022;2023-02-28T21:26:44;3.10;99.90
14397;DHT22;50653;47.810;13.022;2023-02-28T21:29:12;3.10;99.90
14397;DHT22;50653;47.810;13.022;2023-02-28T21:31:39;3.20;99.90
14397;DHT22;50653;47.810;13.022;2023-02-28T21:34:06;3.10;99.90
14397;DHT22;50653;47.810;13.022;2023-02-28T21:36:40;3.10;99.90
14397;DHT22;50653;47.810;13.022;2023-02-28T21:39:18;3.10;99.90
14397;DHT22;50653;47.810;13.022;2023-02-28T21:41:44;3.20;99.90
14397;DHT22;50653;47.810;13.022;2023-02-28T21:44:11;3.20;99.90
14397;DHT22;50653;47.810;13.022;2023-02-28T21:46:47;3.20;99.90
14397;DHT22;50653;47.810;13.022;2023-02-28T21:49:14;3.20;99.90
14397;DHT22;50653;47.810;13.022;2023-02-28T21:51:40;3.20;99.90
14397;DHT22;50653;47.810;13.022;2023-02-28T21:54:07;3.20;99.90
14397;DHT22;50653;47.810;13.022;2023-02-28T21:56:33;3.20;99.90
14397;DHT22;50653;47.810;13.022;2023-02-28T21:59:00;3.20;99.90
14397;DHT22;50653;47.810;13.022;2023-02-28T22:01:29;3.20;99.90
14397;DHT22;50653;47.810;13.022;2023-02-28T22:03:57;3.20;99.90
14397;DHT22;50653;47.810;13.022;2023-02-28T22:06:26;3.10;99.90
14397;DHT22;50653;47.810;13.022;2023-02-28T22:08:53;3.10;99.90
14397;DHT22;50653;47.810;13.022;2023-02-28T22:11:21;3.10;99.90
14397;DHT22;50653;47.810;13.022;2023-02-28T22:13:47;3.20;99.90
14397;DHT22;50653;47.810;13.022;2023-02-28T22:16:17;3.10;99.90
14397;DHT22;50653;47.810;13.022;2023-02-28T22:18:44;3.10;99.90
14397;DHT22;50653;47.810;13.022;2023-02-28T22:21:11;3.10;99.90
14397;DHT22;50653;47.810;13.022;2023-02-28T22:23:38;3.10;99.90
14397;DHT22;50653;47.810;13.022;2023-02-28T22:26:06;3.10;99.90
14397;DHT22;50653;47.810;13.022;2023-02-28T22:28:32;3.10;99.90
14397;DHT22;50653;47.810;13.022;2023-02-28T22:30:59;3.10;99.90
14397;DHT22;50653;47.810;13.022;2023-02-28T22:33:26;3.10;99.90
14397;DHT22;50653;47.810;13.022;2023-02-28T22:35:52;3.00;99.90
14397;DHT22;50653;47.810;13.022;2023-02-28T22:38:18;3.10;99.90
14397;DHT22;50653;47.810;13.022;2023-02-28T22:40:44;3.10;99.90
14397;DHT22;50653;47.810;13.022;2023-02-28T22:43:09;3.00;99.80
14397;DHT22;50653;47.810;13.022;2023-02-28T22:45:39;3.10;99.90
14397;DHT22;50653;47.810;13.022;2023-02-28T22:48:07;3.00;99.90
14397;DHT22;50653;47.810;13.022;2023-02-28T22:50:33;3.00;99.90
14397;DHT22;50653;47.810;13.022;2023-02-28T22:53:00;3.00;99.90
14397;DHT22;50653;47.810;13.022;2023-02-28T22:55:25;2.90;99.50
14397;DHT22;50653;47.810;13.022;2023-02-28T22:57:51;2.80;99.50
14397;DHT22;50653;47.810;13.022;2023-02-28T23:00:17;2.70;99.40
14397;DHT22;50653;47.810;13.022;2023-02-28T23:02:45;2.70;99.30
14397;DHT22;50653;47.810;13.022;2023-02-28T23:05:13;2.60;98.90
14397;DHT22;50653;47.810;13.022;2023-02-28T23:07:40;2.60;99.10
14397;DHT22;50653;47.810;13.022;2023-02-28T23:10:08;2.60;99.60
14397;DHT22;50653;47.810;13.022;2023-02-28T23:12:34;2.50;99.40
14397;DHT22;50653;47.810;13.022;2023-02-28T23:15:00;2.50;99.10
14397;DHT22;50653;47.810;13.022;2023-02-28T23:17:25;2.50;99.20
14397;DHT22;50653;47.810;13.022;2023-02-28T23:19:51;2.60;99.30
14397;DHT22;50653;47.810;13.022;2023-02-28T23:22:17;2.60;99.10
14397;DHT22;50653;47.810;13.022;2023-02-28T23:24:42;2.50;99.00
14397;DHT22;50653;47.810;13.022;2023-02-28T23:27:08;2.60;99.00
14397;DHT22;50653;47.810;13.022;2023-02-28T23:29:34;2.60;99.00
14397;DHT22;50653;47.810;13.022;2023-02-28T23:32:00;2.40;98.70
14397;DHT22;50653;47.810;13.022;2023-02-28T23:34:26;2.30;98.90
14397;DHT22;50653;47.810;13.022;2023-02-28T23:36:58;2.30;99.00
14397;DHT22;50653;47.810;13.022;2023-02-28T23:39:25;2.30;99.10
14397;DHT22;50653;47.810;13.022;2023-02-28T23:41:51;2.20;98.90
14397;DHT22;50653;47.810;13.022;2023-02-28T23:44:18;2.20;99.50
14397;DHT22;50653;47.810;13.022;2023-02-28T23:46:46;2.20;99.10
14397;DHT22;50653;47.810;13.022;2023-02-28T23:49:12;2.20;99.10
14397;DHT22;50653;47.810;13.022;2023-02-28T23:51:38;2.10;99.00
14397;DHT22;50653;47.810;13.022;2023-02-28T23:54:04;2.10;99.00
14397;DHT22;50653;47.810;13.022;2023-02-28T23:56:30;2.10;99.10
14397;DHT22;50653;47.810;13.022;2023-02-28T23:58:56;2.10;99.10
